Time;durP1;ratioP1;P1;durP2;ratioP2;P2;SDS_P1;SDS_P2;PMS_P1;PMS_P2;Temp;Humidity;BMP_temperature;BMP_pressure;BME280_temperature;BME280_humidity;BME280_pressure;Samples;Min_cycle;Max_cycle;Signal;HPM_P1;HPM_P2
2022/12/24 00:01:38;;;;;;;41.37;8.47;;;10.40;99.90;;;;;;5035773;28;20227;-84
2022/12/24 00:04:06;;;;;;;45.67;7.80;;;10.40;99.90;;;;;;5036343;28;20285;-86
2022/12/24 00:06:33;;;;;;;41.23;8.67;;;10.40;99.90;;;;;;5037136;28;20211;-82
2022/12/24 00:09:00;;;;;;;37.07;8.23;;;10.40;99.90;;;;;;5036426;28;20283;-86
2022/12/24 00:11:27;;;;;;;35.20;7.10;;;10.40;99.90;;;;;;5036676;28;20277;-86
2022/12/24 00:13:56;;;;;;;40.93;8.37;;;10.40;99.90;;;;;;5037345;28;20512;-86
2022/12/24 00:16:22;;;;;;;40.57;8.80;;;10.40;99.90;;;;;;5039125;28;20214;-86
2022/12/24 00:18:49;;;;;;;32.27;6.87;;;10.40;99.90;;;;;;5040677;28;20223;-86
2022/12/24 00:21:17;;;;;;;35.27;7.23;;;10.40;99.90;;;;;;5037255;28;20207;-84
2022/12/24 00:23:44;;;;;;;39.50;7.63;;;10.50;99.90;;;;;;5036689;28;20284;-84
2022/12/24 00:26:11;;;;;;;30.17;7.37;;;10.40;99.90;;;;;;5036822;28;20309;-83
2022/12/24 00:28:38;;;;;;;41.50;7.50;;;10.40;99.90;;;;;;5036658;28;20206;-85
2022/12/24 00:31:12;;;;;;;38.90;8.27;;;10.40;99.90;;;;;;5022753;28;20226;-80
2022/12/24 00:33:39;;;;;;;39.20;7.60;;;10.30;99.90;;;;;;5015200;28;20200;-86
2022/12/24 00:36:07;;;;;;;32.27;7.57;;;10.30;99.90;;;;;;5017020;28;20209;-82
2022/12/24 00:38:34;;;;;;;42.43;8.13;;;10.30;99.90;;;;;;5034842;28;20203;-83
2022/12/24 00:41:03;;;;;;;40.53;9.03;;;10.20;99.90;;;;;;5020994;28;20294;-80
2022/12/24 00:43:30;;;;;;;36.93;9.03;;;10.30;99.90;;;;;;5015803;28;20203;-83
2022/12/24 00:45:58;;;;;;;37.10;8.10;;;10.30;99.90;;;;;;5019349;28;20325;-83
2022/12/24 00:48:26;;;;;;;36.70;8.03;;;10.30;99.90;;;;;;5035411;28;20198;-79
2022/12/24 00:50:53;;;;;;;30.53;6.67;;;10.30;99.90;;;;;;5034784;28;20284;-81
2022/12/24 00:53:20;;;;;;;51.50;8.50;;;10.30;99.90;;;;;;5021087;28;20282;-82
2022/12/24 00:55:47;;;;;;;37.77;8.53;;;10.20;99.90;;;;;;5015918;28;20203;-84
2022/12/24 00:58:14;;;;;;;33.90;8.23;;;10.30;99.90;;;;;;5016023;28;20211;-84
2022/12/24 01:00:41;;;;;;;33.90;7.17;;;10.20;99.90;;;;;;5013968;28;20213;-82
2022/12/24 01:03:08;;;;;;;37.10;8.40;;;10.20;99.90;;;;;;5015533;28;20546;-80
2022/12/24 01:05:35;;;;;;;41.40;8.93;;;10.30;99.90;;;;;;5013907;28;20314;-80
2022/12/24 01:08:02;;;;;;;30.27;7.37;;;10.30;99.90;;;;;;5014957;28;20195;-82
2022/12/24 01:10:29;;;;;;;34.87;7.67;;;10.30;99.90;;;;;;5016351;28;20206;-82
2022/12/24 01:12:56;;;;;;;47.50;9.00;;;10.30;99.90;;;;;;5034101;28;20217;-81
2022/12/24 01:15:23;;;;;;;31.13;7.07;;;10.30;99.90;;;;;;5034327;28;20285;-82
2022/12/24 01:17:50;;;;;;;31.63;7.00;;;10.30;99.90;;;;;;5031442;28;20289;-82
2022/12/24 01:20:17;;;;;;;44.07;10.80;;;10.30;99.90;;;;;;5029763;28;20290;-83
2022/12/24 01:22:46;;;;;;;36.00;7.60;;;10.30;99.90;;;;;;5015480;28;20286;-85
2022/12/24 01:25:13;;;;;;;39.13;7.83;;;10.30;99.90;;;;;;5015733;28;20223;-84
2022/12/24 01:27:39;;;;;;;45.63;8.10;;;10.30;99.90;;;;;;5015187;28;20295;-86
2022/12/24 01:30:08;;;;;;;39.17;8.13;;;10.30;99.90;;;;;;5014938;28;20208;-81
2022/12/24 01:32:35;;;;;;;39.20;8.80;;;10.30;99.90;;;;;;5014918;28;20296;-83
2022/12/24 01:35:02;;;;;;;43.13;10.10;;;10.30;99.90;;;;;;5024760;28;20227;-83
2022/12/24 01:37:29;;;;;;;43.30;8.77;;;10.30;99.90;;;;;;5015086;28;20584;-83
2022/12/24 01:45:47;;;;;;;35.53;8.07;;;10.30;99.90;;;;;;5015589;28;20562;-82
2022/12/24 01:48:27;;;;;;;34.73;8.27;;;10.30;99.90;;;;;;5015126;28;20207;-80
2022/12/24 01:50:59;;;;;;;37.60;8.40;;;10.30;99.90;;;;;;5013063;28;20209;-80
2022/12/24 01:53:26;;;;;;;45.80;7.33;;;10.30;99.90;;;;;;5015535;28;20295;-83
2022/12/24 01:55:55;;;;;;;42.90;8.70;;;10.30;99.90;;;;;;5014894;28;20234;-81
2022/12/24 01:58:24;;;;;;;45.80;9.83;;;10.20;99.90;;;;;;5014066;28;20504;-82
2022/12/24 02:00:51;;;;;;;40.63;7.57;;;10.20;99.90;;;;;;5013643;28;20301;-82
2022/12/24 02:03:19;;;;;;;32.27;7.57;;;10.30;99.90;;;;;;5013767;28;20245;-83
2022/12/24 02:05:48;;;;;;;34.37;8.13;;;10.30;99.90;;;;;;5013862;28;20314;-83
2022/12/24 02:08:16;;;;;;;44.07;8.60;;;10.30;99.90;;;;;;5013486;28;20290;-84
2022/12/24 02:10:44;;;;;;;31.40;7.93;;;10.20;99.90;;;;;;5030203;28;20285;-83
2022/12/24 02:13:13;;;;;;;33.30;7.63;;;10.20;99.90;;;;;;5034416;28;20294;-83
2022/12/24 02:15:51;;;;;;;31.27;7.17;;;10.10;99.90;;;;;;5021093;28;20204;-80
2022/12/24 02:18:26;;;;;;;35.70;8.00;;;10.00;99.90;;;;;;5013275;28;20285;-80
2022/12/24 02:21:33;;;;;;;36.30;9.20;;;10.00;99.90;;;;;;5013269;28;20666;-80
2022/12/24 02:24:27;;;;;;;38.07;9.40;;;10.00;99.90;;;;;;5013207;28;20190;-79
2022/12/24 02:27:11;;;;;;;46.97;9.90;;;10.00;99.90;;;;;;5003028;28;20226;-79
2022/12/24 02:30:05;;;;;;;43.73;10.87;;;9.90;99.90;;;;;;5017955;28;20281;-80
2022/12/24 02:32:41;;;;;;;38.43;9.43;;;9.80;99.90;;;;;;5031319;28;20490;-80
2022/12/24 02:35:12;;;;;;;48.53;8.67;;;9.80;99.90;;;;;;5013056;28;20282;-80
2022/12/24 02:37:43;;;;;;;41.43;8.80;;;9.70;99.90;;;;;;5012457;28;20285;-82
2022/12/24 02:40:14;;;;;;;47.10;10.23;;;9.70;99.90;;;;;;5012993;28;20214;-81
2022/12/24 02:42:44;;;;;;;44.37;9.40;;;9.70;99.90;;;;;;5013201;28;20282;-80
2022/12/24 02:45:17;;;;;;;51.33;10.63;;;9.70;99.90;;;;;;5011996;28;20657;-81
2022/12/24 02:47:46;;;;;;;51.30;10.53;;;9.70;99.90;;;;;;5013538;28;20211;-82
2022/12/24 02:50:15;;;;;;;52.07;10.93;;;9.70;99.90;;;;;;5012731;28;20203;-81
2022/12/24 02:52:43;;;;;;;46.43;10.87;;;9.70;99.90;;;;;;5011924;28;20352;-80
2022/12/24 02:55:16;;;;;;;38.87;9.80;;;9.70;99.90;;;;;;5012851;28;20571;-80
2022/12/24 02:58:03;;;;;;;39.13;10.33;;;9.70;99.90;;;;;;5012340;28;20283;-81
2022/12/24 03:00:44;;;;;;;44.47;8.80;;;9.70;99.90;;;;;;5010045;28;20289;-80
2022/12/24 03:03:27;;;;;;;41.30;8.97;;;9.80;99.90;;;;;;5012584;28;20711;-81
2022/12/24 03:06:04;;;;;;;39.33;10.07;;;9.80;99.90;;;;;;5011870;28;20235;-81
2022/12/24 03:08:41;;;;;;;47.80;9.17;;;9.80;99.90;;;;;;5012445;28;20702;-80
2022/12/24 03:11:10;;;;;;;48.10;12.03;;;9.80;99.90;;;;;;5012280;28;20682;-80
2022/12/24 03:13:38;;;;;;;55.43;10.20;;;9.80;99.90;;;;;;5011985;28;20209;-83
2022/12/24 03:16:10;;;;;;;46.73;10.40;;;9.80;99.90;;;;;;5012518;28;20222;-80
2022/12/24 03:18:40;;;;;;;48.30;10.87;;;9.80;99.90;;;;;;5012122;28;20203;-81
2022/12/24 03:21:12;;;;;;;53.47;11.90;;;9.80;99.90;;;;;;5011552;28;20219;-80
2022/12/24 03:23:39;;;;;;;54.23;10.23;;;9.80;99.90;;;;;;5014745;28;20279;-79
2022/12/24 03:26:08;;;;;;;51.53;10.67;;;9.80;99.90;;;;;;5025092;28;20222;-79
2022/12/24 03:28:39;;;;;;;43.80;9.70;;;9.80;99.90;;;;;;5036219;28;20260;-81
2022/12/24 03:31:09;;;;;;;44.17;10.27;;;9.70;99.90;;;;;;5025225;28;20203;-80
2022/12/24 03:33:37;;;;;;;47.33;11.00;;;9.80;99.90;;;;;;5016846;28;20192;-81
2022/12/24 03:36:05;;;;;;;47.33;10.93;;;9.70;99.90;;;;;;5033828;28;20202;-80
2022/12/24 03:38:33;;;;;;;47.67;10.80;;;9.80;99.90;;;;;;5035708;28;20209;-81
2022/12/24 03:41:00;;;;;;;53.93;10.67;;;9.80;99.90;;;;;;5035287;28;20202;-81
2022/12/24 03:43:26;;;;;;;41.60;9.53;;;9.80;99.90;;;;;;5023269;28;20221;-81
2022/12/24 03:45:53;;;;;;;41.43;10.27;;;9.80;99.90;;;;;;5016049;28;20233;-81
2022/12/24 03:48:22;;;;;;;51.97;10.00;;;9.80;99.90;;;;;;5015875;28;20233;-80
2022/12/24 03:50:49;;;;;;;39.73;9.27;;;9.80;99.90;;;;;;5015479;28;20210;-82
2022/12/24 03:53:15;;;;;;;44.23;9.37;;;9.90;99.90;;;;;;5016440;28;20183;-82
2022/12/24 03:55:42;;;;;;;40.33;10.53;;;9.90;99.90;;;;;;5015529;28;20230;-81
2022/12/24 03:58:09;;;;;;;45.20;10.63;;;9.90;99.90;;;;;;5015768;28;20546;-82
2022/12/24 04:00:36;;;;;;;44.80;10.43;;;9.90;99.90;;;;;;5017225;28;20227;-85
2022/12/24 04:03:03;;;;;;;33.53;8.73;;;9.80;99.90;;;;;;5017522;28;20560;-86
2022/12/24 04:05:32;;;;;;;45.60;8.93;;;9.80;99.90;;;;;;5031414;28;20249;-82
2022/12/24 04:07:59;;;;;;;38.70;7.43;;;9.80;99.90;;;;;;5031635;28;20262;-85
2022/12/24 04:10:25;;;;;;;45.57;9.43;;;9.80;99.90;;;;;;5017796;28;20527;-85
2022/12/24 04:12:52;;;;;;;38.13;7.23;;;9.80;99.90;;;;;;5017571;28;20215;-84
2022/12/24 04:15:19;;;;;;;32.47;6.17;;;9.70;99.90;;;;;;5016444;28;20286;-81
2022/12/24 04:17:46;;;;;;;42.00;7.67;;;9.70;99.90;;;;;;5014870;28;20231;-82
2022/12/24 04:20:13;;;;;;;38.17;8.53;;;9.80;99.90;;;;;;5015233;28;20274;-80
2022/12/24 04:22:42;;;;;;;34.67;7.53;;;9.80;99.90;;;;;;5015154;28;20242;-81
2022/12/24 04:25:09;;;;;;;35.57;6.50;;;9.80;99.90;;;;;;5015526;28;20207;-81
2022/12/24 04:27:36;;;;;;;37.00;7.87;;;9.80;99.90;;;;;;5015435;28;20223;-80
2022/12/24 04:30:04;;;;;;;30.23;7.13;;;9.80;99.90;;;;;;5030902;28;20206;-80
2022/12/24 04:32:31;;;;;;;42.80;7.40;;;9.80;99.90;;;;;;5034190;28;20199;-82
2022/12/24 04:34:58;;;;;;;39.40;8.53;;;9.80;99.90;;;;;;5034630;28;20202;-81
2022/12/24 04:37:25;;;;;;;44.37;9.87;;;9.80;99.90;;;;;;5030223;28;20198;-79
2022/12/24 04:39:53;;;;;;;35.90;8.33;;;9.80;99.90;;;;;;5015068;28;20254;-80
2022/12/24 04:42:20;;;;;;;35.03;7.33;;;9.80;99.90;;;;;;5015477;28;20520;-82
2022/12/24 04:44:47;;;;;;;40.90;8.43;;;9.80;99.90;;;;;;5014702;28;20231;-81
2022/12/24 04:47:14;;;;;;;58.10;9.73;;;9.80;99.90;;;;;;5014912;28;20269;-82
2022/12/24 04:49:41;;;;;;;52.27;8.50;;;9.90;99.90;;;;;;5014803;28;20249;-81
2022/12/24 04:52:08;;;;;;;58.70;10.20;;;9.90;99.90;;;;;;5013829;28;20335;-82
2022/12/24 04:54:35;;;;;;;37.33;8.70;;;9.90;99.90;;;;;;5015232;28;20290;-84
2022/12/24 04:57:03;;;;;;;43.37;9.87;;;9.90;99.90;;;;;;5026742;28;20209;-84
2022/12/24 04:59:30;;;;;;;46.90;9.47;;;10.00;99.90;;;;;;5036301;28;20195;-84
2022/12/24 05:01:57;;;;;;;45.00;9.70;;;10.00;99.90;;;;;;5036510;28;20229;-82
2022/12/24 05:04:24;;;;;;;40.30;8.63;;;10.10;99.90;;;;;;5036102;28;20233;-85
2022/12/24 05:06:50;;;;;;;42.40;10.10;;;10.10;99.90;;;;;;5035309;28;20226;-83
2022/12/24 05:09:17;;;;;;;50.63;10.00;;;10.10;99.90;;;;;;5020407;28;20243;-84
2022/12/24 05:11:44;;;;;;;59.67;11.47;;;10.10;99.90;;;;;;5014727;28;20278;-84
2022/12/24 05:14:13;;;;;;;49.50;10.13;;;10.20;99.90;;;;;;5015212;28;20691;-83
2022/12/24 05:16:40;;;;;;;50.63;11.23;;;10.20;99.90;;;;;;5015658;28;20591;-85
2022/12/24 05:19:06;;;;;;;49.73;11.33;;;10.20;99.90;;;;;;5015551;28;20401;-83
2022/12/24 05:21:33;;;;;;;52.60;10.97;;;10.20;99.90;;;;;;5016119;28;20495;-82
2022/12/24 05:26:49;;;;;;;50.50;11.67;;;10.20;99.90;;;;;;5014983;28;20219;-83
2022/12/24 05:29:17;;;;;;;56.23;10.20;;;10.20;99.90;;;;;;5015544;28;20274;-83
2022/12/24 05:31:46;;;;;;;49.47;9.90;;;10.20;99.90;;;;;;5015451;28;20659;-84
2022/12/24 05:34:14;;;;;;;42.33;9.47;;;10.20;99.90;;;;;;5015804;28;20269;-85
2022/12/24 05:36:43;;;;;;;44.93;9.37;;;10.20;99.90;;;;;;5015541;28;20265;-83
2022/12/24 05:39:14;;;;;;;52.73;8.83;;;10.20;99.90;;;;;;5015813;28;20486;-82
2022/12/24 05:41:41;;;;;;;40.60;8.83;;;10.10;99.90;;;;;;5015564;28;20588;-84
2022/12/24 05:44:08;;;;;;;44.00;8.00;;;10.10;99.90;;;;;;5016101;28;20238;-83
2022/12/24 05:46:36;;;;;;;46.43;8.90;;;10.10;99.90;;;;;;5015100;28;20223;-84
2022/12/24 05:49:03;;;;;;;32.30;7.77;;;10.10;99.90;;;;;;5015973;28;20223;-82
2022/12/24 05:51:30;;;;;;;41.20;7.17;;;10.10;99.90;;;;;;5015597;28;20297;-84
2022/12/24 05:53:57;;;;;;;41.43;7.80;;;10.10;99.90;;;;;;5015299;28;20207;-85
2022/12/24 05:56:25;;;;;;;37.60;7.67;;;10.10;99.90;;;;;;5015624;28;20233;-85
2022/12/24 05:58:54;;;;;;;43.00;7.73;;;10.10;99.90;;;;;;5015347;28;20591;-83
2022/12/24 06:01:22;;;;;;;43.40;9.07;;;10.10;99.90;;;;;;5014904;28;20753;-84
2022/12/24 06:03:50;;;;;;;40.20;7.47;;;10.10;99.90;;;;;;5015219;28;20275;-85
2022/12/24 06:06:19;;;;;;;45.67;8.43;;;10.20;99.90;;;;;;5015252;28;20729;-81
2022/12/24 06:08:47;;;;;;;28.73;7.93;;;10.10;99.90;;;;;;5015064;28;20204;-85
2022/12/24 06:11:16;;;;;;;44.67;8.60;;;10.10;99.90;;;;;;5033152;28;20210;-85
2022/12/24 06:13:43;;;;;;;39.00;8.97;;;10.10;99.90;;;;;;5035073;28;20493;-85
2022/12/24 06:16:13;;;;;;;55.70;10.77;;;10.10;99.90;;;;;;5034166;28;20208;-83
2022/12/24 06:18:40;;;;;;;54.43;9.63;;;10.10;99.90;;;;;;5035289;28;20285;-85
2022/12/24 06:21:09;;;;;;;47.20;10.23;;;10.10;99.90;;;;;;5029577;28;20227;-84
2022/12/24 06:23:38;;;;;;;51.30;10.60;;;10.10;99.90;;;;;;5015090;28;20210;-84
2022/12/24 06:26:07;;;;;;;55.00;10.17;;;10.10;99.90;;;;;;5015248;28;20230;-83
2022/12/24 06:28:36;;;;;;;52.77;10.57;;;10.10;99.90;;;;;;5015013;28;20205;-85
2022/12/24 06:31:03;;;;;;;52.50;9.70;;;10.10;99.90;;;;;;5014811;28;20230;-84
2022/12/24 06:33:31;;;;;;;41.50;9.47;;;10.10;99.90;;;;;;5015183;28;20196;-84
2022/12/24 06:35:58;;;;;;;42.47;8.50;;;10.10;99.90;;;;;;5014206;28;20290;-83
2022/12/24 06:38:27;;;;;;;42.97;9.93;;;10.20;99.90;;;;;;5012677;28;20483;-83
2022/12/24 06:40:54;;;;;;;43.07;9.60;;;10.10;99.90;;;;;;5014060;28;20285;-83
2022/12/24 06:43:21;;;;;;;48.00;8.40;;;10.20;99.90;;;;;;5012772;28;20294;-83
2022/12/24 06:45:48;;;;;;;45.80;9.27;;;10.10;99.90;;;;;;5014427;28;20282;-84
2022/12/24 06:48:16;;;;;;;55.30;10.57;;;10.10;99.90;;;;;;5014154;28;20285;-83
2022/12/24 06:50:43;;;;;;;43.77;8.70;;;10.10;99.90;;;;;;5022025;28;20277;-82
2022/12/24 06:53:10;;;;;;;40.90;9.70;;;10.10;99.90;;;;;;5033991;28;20222;-83
2022/12/24 06:55:40;;;;;;;57.20;10.17;;;10.10;99.90;;;;;;5033614;28;20203;-83
2022/12/24 06:58:07;;;;;;;39.63;8.87;;;10.10;99.90;;;;;;5032823;28;20203;-83
2022/12/24 07:00:34;;;;;;;37.77;7.57;;;10.10;99.90;;;;;;5032781;28;20691;-83
2022/12/24 07:03:01;;;;;;;31.20;7.00;;;10.10;99.90;;;;;;5028175;28;20208;-85
2022/12/24 07:05:28;;;;;;;43.67;9.17;;;10.10;99.90;;;;;;5014122;28;20285;-83
2022/12/24 07:07:55;;;;;;;42.07;7.90;;;10.10;99.90;;;;;;5014378;28;20226;-83
2022/12/24 07:10:22;;;;;;;40.93;9.50;;;10.10;99.90;;;;;;5014061;28;20282;-83
2022/12/24 07:12:51;;;;;;;35.70;7.90;;;10.00;99.90;;;;;;5013841;28;20227;-83
2022/12/24 07:15:18;;;;;;;43.00;8.87;;;10.00;99.90;;;;;;5013387;28;20286;-84
2022/12/24 07:17:45;;;;;;;37.33;8.17;;;10.00;99.90;;;;;;5017818;28;20217;-83
2022/12/24 07:20:14;;;;;;;43.13;8.00;;;10.10;99.90;;;;;;5033486;28;20325;-83
2022/12/24 07:22:41;;;;;;;48.87;10.23;;;10.10;99.90;;;;;;5033740;28;20253;-84
2022/12/24 07:25:09;;;;;;;41.70;9.53;;;10.10;99.90;;;;;;5016078;28;20211;-84
2022/12/24 07:27:37;;;;;;;51.57;12.80;;;10.10;99.90;;;;;;5023753;28;20321;-85
2022/12/24 07:30:06;;;;;;;42.70;9.63;;;10.10;99.90;;;;;;5031025;28;20262;-84
2022/12/24 07:32:33;;;;;;;38.90;9.87;;;10.10;99.90;;;;;;5014212;28;20685;-85
2022/12/24 07:35:00;;;;;;;44.83;9.67;;;10.20;99.90;;;;;;5017648;28;20294;-84
2022/12/24 07:37:27;;;;;;;42.10;9.50;;;10.20;99.90;;;;;;5033738;28;20209;-85
2022/12/24 07:39:54;;;;;;;46.67;11.10;;;10.30;99.90;;;;;;5033573;28;20226;-84
2022/12/24 07:42:21;;;;;;;51.77;11.17;;;10.30;99.90;;;;;;5032846;28;20480;-81
2022/12/24 07:44:48;;;;;;;40.80;8.13;;;10.20;99.90;;;;;;5033354;28;20199;-84
2022/12/24 07:47:16;;;;;;;36.70;7.33;;;10.20;99.90;;;;;;5033419;28;20314;-84
2022/12/24 07:49:43;;;;;;;44.47;7.60;;;10.20;99.90;;;;;;5026599;28;20213;-84
2022/12/24 07:52:10;;;;;;;42.13;7.73;;;10.20;99.90;;;;;;5033511;28;20265;-83
2022/12/24 07:54:37;;;;;;;44.93;8.60;;;10.20;99.90;;;;;;5033470;28;20565;-83
2022/12/24 07:57:04;;;;;;;49.33;9.53;;;10.20;99.90;;;;;;5033155;28;20199;-86
2022/12/24 07:59:31;;;;;;;49.73;8.63;;;10.20;99.90;;;;;;5027163;28;20206;-84
2022/12/24 08:01:59;;;;;;;39.47;7.20;;;10.20;99.90;;;;;;5033428;28;20242;-86
2022/12/24 08:04:31;;;;;;;38.50;8.20;;;10.20;99.90;;;;;;5034602;28;20217;-85
2022/12/24 08:06:58;;;;;;;45.33;8.00;;;10.20;99.90;;;;;;5034347;28;20269;-88
2022/12/24 08:09:25;;;;;;;54.30;8.20;;;10.20;99.90;;;;;;5043565;28;20602;-87
2022/12/24 08:11:52;;;;;;;42.43;7.57;;;10.20;99.90;;;;;;5037701;28;20285;-82
2022/12/24 08:14:19;;;;;;;39.87;8.47;;;10.20;99.90;;;;;;5045599;28;20245;-87
2022/12/24 08:16:46;;;;;;;52.37;9.00;;;10.20;99.90;;;;;;5031529;28;20211;-85
2022/12/24 08:19:15;;;;;;;49.30;9.33;;;10.30;99.90;;;;;;5044226;28;20195;-89
2022/12/24 08:21:44;;;;;;;40.83;8.30;;;10.30;99.90;;;;;;5049329;28;20237;-85
2022/12/24 08:24:11;;;;;;;35.63;7.57;;;10.30;99.90;;;;;;5050524;28;20219;-82
2022/12/24 08:26:38;;;;;;;41.20;8.93;;;10.30;99.90;;;;;;5024638;28;20297;-81
2022/12/24 08:29:06;;;;;;;44.10;8.13;;;10.30;99.90;;;;;;5035586;28;20306;-87
2022/12/24 08:31:35;;;;;;;44.07;8.60;;;10.30;99.90;;;;;;5035260;28;20607;-84
2022/12/24 08:34:02;;;;;;;43.60;8.90;;;10.30;99.90;;;;;;5036368;28;20244;-85
2022/12/24 08:36:29;;;;;;;47.70;8.97;;;10.30;99.90;;;;;;5036119;28;20317;-84
2022/12/24 08:38:57;;;;;;;44.20;10.07;;;10.30;99.90;;;;;;5020576;28;20204;-82
2022/12/24 08:41:24;;;;;;;51.70;10.43;;;10.20;99.90;;;;;;5017483;28;20203;-85
2022/12/24 08:43:51;;;;;;;42.00;8.57;;;10.20;99.90;;;;;;5016409;28;20298;-84
2022/12/24 08:46:18;;;;;;;46.00;10.63;;;10.30;99.90;;;;;;5016806;28;20211;-84
2022/12/24 08:48:45;;;;;;;40.47;9.97;;;10.30;99.90;;;;;;5016714;28;20645;-83
2022/12/24 08:51:12;;;;;;;54.23;11.80;;;10.30;99.90;;;;;;5016210;28;20825;-83
2022/12/24 08:53:39;;;;;;;45.33;9.93;;;10.30;99.90;;;;;;5016894;28;20210;-84
2022/12/24 08:56:10;;;;;;;49.67;10.00;;;10.30;99.90;;;;;;5017503;28;20261;-86
2022/12/24 08:58:37;;;;;;;45.60;8.73;;;10.30;99.90;;;;;;5016854;28;20755;-82
2022/12/24 09:01:11;;;;;;;35.60;7.47;;;10.30;99.90;;;;;;5016417;28;20211;-85
2022/12/24 09:03:37;;;;;;;34.17;7.83;;;10.30;99.90;;;;;;5016185;28;20286;-83
2022/12/24 09:06:05;;;;;;;43.63;9.07;;;10.30;99.90;;;;;;5019822;28;20301;-83
2022/12/24 09:08:32;;;;;;;40.87;8.73;;;10.30;99.90;;;;;;5015878;28;20638;-83
2022/12/24 09:11:04;;;;;;;44.70;8.47;;;10.30;99.90;;;;;;5015658;28;20214;-85
2022/12/24 09:13:32;;;;;;;33.40;8.63;;;10.40;99.90;;;;;;5016735;28;20218;-82
2022/12/24 09:15:59;;;;;;;39.97;8.63;;;10.40;99.90;;;;;;5014809;28;20301;-83
2022/12/24 09:18:26;;;;;;;34.60;7.00;;;10.40;99.90;;;;;;5035002;28;20287;-84
2022/12/24 09:20:58;;;;;;;36.73;7.20;;;10.40;99.90;;;;;;5035001;28;20301;-84
2022/12/24 09:23:25;;;;;;;27.43;6.53;;;10.40;99.90;;;;;;5035269;28;20211;-84
2022/12/24 09:25:52;;;;;;;38.57;7.70;;;10.40;99.90;;;;;;5035413;28;20297;-85
2022/12/24 09:28:19;;;;;;;33.40;7.17;;;10.40;99.90;;;;;;5034338;28;20233;-84
2022/12/24 09:30:55;;;;;;;30.87;7.20;;;10.40;99.90;;;;;;5034369;28;20290;-82
2022/12/24 09:33:22;;;;;;;31.50;7.00;;;10.50;99.90;;;;;;5023046;28;20310;-85
2022/12/24 09:35:51;;;;;;;30.73;6.13;;;10.40;99.90;;;;;;5025771;28;20290;-83
2022/12/24 09:38:18;;;;;;;31.73;7.43;;;10.40;99.90;;;;;;5035564;28;20199;-84
2022/12/24 09:40:44;;;;;;;34.97;7.17;;;10.40;99.90;;;;;;5035070;28;20284;-86
2022/12/24 09:43:15;;;;;;;41.83;9.13;;;10.40;99.90;;;;;;5035209;28;20668;-86
2022/12/24 09:45:49;;;;;;;36.63;9.20;;;10.40;99.90;;;;;;5021966;28;20542;-85
2022/12/24 09:48:20;;;;;;;36.23;8.67;;;10.40;99.90;;;;;;5014700;28;20219;-82
2022/12/24 09:50:53;;;;;;;34.30;9.83;;;10.40;99.90;;;;;;5014887;28;20217;-82
2022/12/24 09:53:25;;;;;;;37.53;8.23;;;10.40;99.90;;;;;;5014783;28;20945;-81
2022/12/24 09:55:56;;;;;;;38.17;8.23;;;10.40;99.90;;;;;;5014517;28;20207;-82
2022/12/24 09:58:27;;;;;;;37.80;8.43;;;10.40;99.90;;;;;;5014639;28;20207;-81
2022/12/24 10:00:57;;;;;;;36.40;9.13;;;10.40;99.90;;;;;;5014155;28;20298;-79
2022/12/24 10:03:24;;;;;;;29.20;7.43;;;10.40;99.90;;;;;;5018660;28;20289;-81
2022/12/24 10:05:58;;;;;;;42.13;10.40;;;10.30;99.90;;;;;;5033178;28;20206;-81
2022/12/24 10:08:31;;;;;;;40.93;9.47;;;10.30;99.90;;;;;;5033486;28;20521;-81
2022/12/24 10:11:06;;;;;;;35.57;8.20;;;10.40;99.90;;;;;;5032208;28;20615;-82
2022/12/24 10:13:50;;;;;;;32.93;8.70;;;10.30;99.90;;;;;;5033973;28;20190;-79
2022/12/24 10:16:24;;;;;;;50.60;9.57;;;10.30;99.90;;;;;;5013200;28;20291;-82
2022/12/24 10:19:02;;;;;;;37.77;8.93;;;10.30;99.90;;;;;;5014112;28;20187;-81
2022/12/24 10:21:41;;;;;;;41.23;8.23;;;10.30;99.90;;;;;;5013240;28;20207;-80
2022/12/24 10:24:16;;;;;;;41.30;8.63;;;10.30;99.90;;;;;;5032870;28;20762;-81
2022/12/24 10:26:45;;;;;;;32.50;8.40;;;10.30;99.90;;;;;;5033704;28;20197;-81
2022/12/24 10:29:17;;;;;;;44.80;8.93;;;10.40;99.90;;;;;;5032456;28;20264;-79
2022/12/24 10:31:55;;;;;;;35.33;8.37;;;10.40;99.90;;;;;;5013167;28;20184;-80
2022/12/24 10:34:23;;;;;;;39.80;8.47;;;10.40;99.90;;;;;;5013362;28;20246;-81
2022/12/24 10:36:51;;;;;;;39.97;8.47;;;10.40;99.90;;;;;;5012615;28;20294;-82
2022/12/24 10:39:21;;;;;;;33.43;7.93;;;10.50;99.90;;;;;;5013514;28;20499;-81
2022/12/24 10:41:50;;;;;;;38.87;8.07;;;10.50;99.90;;;;;;5013182;28;20195;-81
2022/12/24 10:44:21;;;;;;;30.33;7.80;;;10.60;99.90;;;;;;5012984;28;20209;-81
2022/12/24 10:46:49;;;;;;;25.37;7.00;;;10.50;99.90;;;;;;5013156;28;20294;-81
2022/12/24 10:49:19;;;;;;;39.90;8.73;;;10.60;99.90;;;;;;5012903;28;20306;-81
2022/12/24 10:51:50;;;;;;;42.47;9.60;;;10.60;99.90;;;;;;5012697;28;20254;-81
2022/12/24 10:54:20;;;;;;;42.37;8.90;;;10.60;99.90;;;;;;5012897;28;20210;-81
2022/12/24 10:56:49;;;;;;;29.67;7.37;;;10.60;99.90;;;;;;5012786;28;20199;-83
2022/12/24 10:59:28;;;;;;;31.17;7.27;;;10.70;99.90;;;;;;5013223;28;20211;-79
2022/12/24 11:01:58;;;;;;;28.77;7.13;;;10.70;99.90;;;;;;5013076;28;20690;-81
2022/12/24 11:04:27;;;;;;;37.33;7.40;;;10.70;99.90;;;;;;5012405;28;20249;-81
2022/12/24 11:06:58;;;;;;;30.87;6.73;;;10.70;99.90;;;;;;5012710;28;20290;-81
2022/12/24 11:09:28;;;;;;;29.30;7.57;;;10.70;99.90;;;;;;5027550;28;20230;-81
2022/12/24 11:11:56;;;;;;;29.73;6.77;;;10.70;99.90;;;;;;5032042;28;20503;-81
2022/12/24 11:14:24;;;;;;;28.67;6.33;;;10.80;99.90;;;;;;5031869;28;20608;-80
2022/12/24 11:16:53;;;;;;;30.47;6.73;;;10.80;99.90;;;;;;5031964;28;20221;-81
2022/12/24 11:19:30;;;;;;;24.30;6.60;;;10.90;99.90;;;;;;5031786;28;20286;-79
2022/12/24 11:22:03;;;;;;;29.30;6.57;;;10.90;99.90;;;;;;5030798;28;20285;-80
2022/12/24 11:24:33;;;;;;;27.83;7.03;;;11.00;99.90;;;;;;5012246;28;20510;-80
2022/12/24 11:27:29;;;;;;;30.97;6.07;;;11.00;99.90;;;;;;5012517;28;20203;-80
2022/12/24 11:30:20;;;;;;;33.60;8.17;;;11.00;99.90;;;;;;5012694;28;20207;-82
2022/12/24 11:32:49;;;;;;;27.67;6.73;;;11.00;99.90;;;;;;5020648;28;20203;-83
2022/12/24 11:35:20;;;;;;;26.57;6.53;;;11.10;99.90;;;;;;5033688;28;20199;-83
2022/12/24 11:37:47;;;;;;;30.30;7.17;;;11.10;99.90;;;;;;5014468;28;20241;-82
2022/12/24 11:40:21;;;;;;;24.00;6.63;;;11.10;99.90;;;;;;5013545;28;20208;-83
2022/12/24 11:42:51;;;;;;;29.63;7.03;;;11.10;99.90;;;;;;5014029;28;20203;-83
2022/12/24 11:45:24;;;;;;;28.80;6.27;;;11.00;99.90;;;;;;5016057;28;20198;-83
2022/12/24 11:47:53;;;;;;;29.23;6.60;;;11.00;99.90;;;;;;5015390;28;20230;-82
2022/12/24 11:50:27;;;;;;;32.53;6.93;;;11.00;99.90;;;;;;5015935;28;20461;-82
2022/12/24 11:53:04;;;;;;;27.20;6.57;;;10.90;99.90;;;;;;5016753;28;20269;-79
2022/12/24 11:55:41;;;;;;;27.00;6.57;;;10.90;99.90;;;;;;5017414;28;20286;-80
2022/12/24 11:58:23;;;;;;;30.30;6.47;;;10.90;99.90;;;;;;5017448;28;20201;-86
2022/12/24 12:00:51;;;;;;;26.27;5.60;;;10.90;99.90;;;;;;5017428;28;20227;-83
2022/12/24 12:03:30;;;;;;;26.43;5.90;;;10.90;99.90;;;;;;5017661;28;20270;-82
2022/12/24 12:06:00;;;;;;;27.97;5.37;;;10.80;99.90;;;;;;5016441;28;20215;-84
2022/12/24 12:08:29;;;;;;;20.47;4.93;;;10.80;99.90;;;;;;5017334;28;20243;-85
2022/12/24 12:10:59;;;;;;;24.73;5.80;;;10.80;99.90;;;;;;5017575;28;20914;-86
2022/12/24 12:13:32;;;;;;;23.77;5.70;;;10.70;99.90;;;;;;5018169;28;20205;-86
2022/12/24 12:16:07;;;;;;;26.87;6.07;;;10.60;99.90;;;;;;5017316;28;20196;-87
2022/12/24 12:18:38;;;;;;;27.37;6.50;;;10.60;99.90;;;;;;5017565;28;20499;-82
2022/12/24 12:21:11;;;;;;;26.20;7.17;;;10.50;99.90;;;;;;5028108;28;20281;-81
2022/12/24 12:23:44;;;;;;;38.57;8.60;;;10.50;99.90;;;;;;5019568;28;20192;-82
2022/12/24 12:26:15;;;;;;;29.70;7.87;;;10.40;99.90;;;;;;5015344;28;20188;-80
2022/12/24 12:28:48;;;;;;;25.00;7.27;;;10.40;99.90;;;;;;5014262;28;20221;-81
2022/12/24 12:31:19;;;;;;;29.27;7.70;;;10.40;99.90;;;;;;5015077;28;20571;-80
2022/12/24 12:33:50;;;;;;;22.10;6.27;;;10.50;99.90;;;;;;5015177;28;20197;-80
2022/12/24 12:36:21;;;;;;;27.40;6.83;;;10.50;99.90;;;;;;5024221;28;20199;-81
2022/12/24 12:38:49;;;;;;;33.03;7.37;;;10.50;99.90;;;;;;5035343;28;20190;-80
2022/12/24 12:41:29;;;;;;;22.83;5.10;;;10.50;99.90;;;;;;5035287;28;20720;-81
2022/12/24 12:44:28;;;;;;;27.60;6.30;;;10.50;99.90;;;;;;5034160;28;20516;-82
2022/12/24 12:47:36;;;;;;;28.87;5.83;;;10.50;99.90;;;;;;5010104;28;20249;-81
2022/12/24 12:50:11;;;;;;;24.17;5.67;;;10.50;99.90;;;;;;4969605;28;20505;-82
2022/12/24 12:52:55;;;;;;;21.13;4.83;;;10.40;99.90;;;;;;5017200;28;20235;-80
2022/12/24 12:55:36;;;;;;;35.30;5.93;;;10.40;99.90;;;;;;5034623;28;20277;-86
2022/12/24 12:58:07;;;;;;;23.20;5.73;;;10.40;99.90;;;;;;5017742;28;20297;-79
2022/12/24 13:00:38;;;;;;;24.17;5.77;;;10.30;99.90;;;;;;5014893;28;20703;-79